createdAt,value
2022-08-07T00:02:37.222Z,39.71
2022-08-07T00:05:04.000Z,39.54
2022-08-07T00:07:40.153Z,40.18
2022-08-07T00:10:26.015Z,40.39
2022-08-07T00:13:00.708Z,40.28
2022-08-07T00:15:37.680Z,40.58
2022-08-07T00:18:19.339Z,40.40
2022-08-07T00:20:48.356Z,40.31
2022-08-07T00:23:17.218Z,40.34
2022-08-07T00:25:45.836Z,40.26
2022-08-07T00:28:21.978Z,40.36
2022-08-07T00:30:51.055Z,39.96
2022-08-07T00:33:18.476Z,40.32
2022-08-07T00:35:49.619Z,40.29
2022-08-07T00:38:31.177Z,40.48
2022-08-07T00:40:59.636Z,39.98
2022-08-07T00:44:01.340Z,40.11
2022-08-07T00:46:16.352Z,40.35
2022-08-07T00:48:43.728Z,40.32
2022-08-07T00:51:11.143Z,40.73
2022-08-07T00:53:50.768Z,41.07
2022-08-07T00:56:23.439Z,42.08
2022-08-07T00:58:58.781Z,40.85
2022-08-07T01:01:28.189Z,41.18
2022-08-07T01:04:09.223Z,40.85
2022-08-07T01:06:38.099Z,41.07
2022-08-07T01:09:06.626Z,40.78
2022-08-07T01:12:27.672Z,40.56
2022-08-07T01:14:28.435Z,39.36
2022-08-07T01:16:58.647Z,39.49
2022-08-07T01:19:32.437Z,38.54
2022-08-07T01:22:03.677Z,38.26
2022-08-07T01:24:41.841Z,38.02
2022-08-07T01:27:19.677Z,38.30
2022-08-07T01:29:57.606Z,37.99
2022-08-07T01:32:26.420Z,39.03
2022-08-07T01:34:55.727Z,39.26
2022-08-07T01:37:27.869Z,39.10
2022-08-07T01:39:59.452Z,39.39
2022-08-07T01:42:37.676Z,39.43
2022-08-07T01:45:17.850Z,39.19
2022-08-07T01:48:19.605Z,39.77
2022-08-07T01:50:40.319Z,39.93
2022-08-07T01:53:20.936Z,40.04
2022-08-07T01:55:58.904Z,39.66
2022-08-07T01:58:33.313Z,39.82
2022-08-07T02:01:09.984Z,39.83
2022-08-07T02:03:56.377Z,40.12
2022-08-07T02:06:32.139Z,40.04
2022-08-07T02:09:52.087Z,40.24
2022-08-07T02:12:05.261Z,40.26
2022-08-07T02:14:40.782Z,40.05
2022-08-07T02:17:16.503Z,39.99
2022-08-07T02:20:07.750Z,39.87
2022-08-07T02:22:43.636Z,40.31
2022-08-07T02:25:18.090Z,39.82
2022-08-07T02:27:56.904Z,39.79
2022-08-07T02:30:25.804Z,39.88
2022-08-07T02:33:00.387Z,39.96
2022-08-07T02:36:30.097Z,40.05
2022-08-07T02:38:35.500Z,40.53
2022-08-07T02:41:07.922Z,40.25
2022-08-07T02:43:39.899Z,40.51
2022-08-07T02:46:10.901Z,40.58
2022-08-07T02:48:39.748Z,40.67
2022-08-07T02:51:42.685Z,40.39
2022-08-07T02:54:13.065Z,40.75
2022-08-07T02:56:46.661Z,40.30
2022-08-07T02:59:18.980Z,40.69
2022-08-07T03:01:55.184Z,40.32
2022-08-07T03:04:25.852Z,40.88
2022-08-07T03:06:55.053Z,40.79
2022-08-07T03:09:42.064Z,40.93
2022-08-07T03:12:21.916Z,40.86
2022-08-07T03:14:54.715Z,40.68
2022-08-07T03:17:23.101Z,41.09
2022-08-07T03:19:54.732Z,41.08
2022-08-07T03:22:30.190Z,40.90
2022-08-07T03:24:58.873Z,41.44
2022-08-07T03:27:30.647Z,41.48
2022-08-07T03:30:03.729Z,40.90
2022-08-07T03:32:37.052Z,41.26
2022-08-07T03:35:17.571Z,41.10
2022-08-07T03:37:53.760Z,40.90
2022-08-07T03:40:30.827Z,41.01
2022-08-07T03:43:02.214Z,41.08
2022-08-07T03:45:34.260Z,40.95
2022-08-07T03:48:11.890Z,40.70
2022-08-07T03:50:43.249Z,40.69
2022-08-07T03:53:30.324Z,40.94
2022-08-07T03:56:33.451Z,40.78
2022-08-07T03:59:12.943Z,40.67
2022-08-07T04:01:48.869Z,40.75
2022-08-07T04:04:21.580Z,40.60
2022-08-07T04:06:54.008Z,40.72
2022-08-07T04:09:24.145Z,40.68
2022-08-07T04:12:25.824Z,41.11
2022-08-07T04:14:49.158Z,41.09
2022-08-07T04:17:20.790Z,40.91
2022-08-07T04:19:52.440Z,41.03
2022-08-07T04:22:28.628Z,40.86
2022-08-07T04:25:01.953Z,40.92
2022-08-07T04:27:35.536Z,41.34
2022-08-07T04:30:21.356Z,41.20
2022-08-07T04:33:07.349Z,41.39
2022-08-07T04:35:37.394Z,41.86
2022-08-07T04:38:13.070Z,40.86
2022-08-07T04:40:52.992Z,40.76
2022-08-07T04:44:09.610Z,41.00
2022-08-07T04:46:34.881Z,41.19
2022-08-07T04:49:17.696Z,41.28
2022-08-07T04:51:54.762Z,41.11
2022-08-07T04:54:32.256Z,41.19
2022-08-07T04:58:15.262Z,41.10
2022-08-07T05:00:12.025Z,41.24
2022-08-07T05:02:57.101Z,41.35
2022-08-07T05:05:53.082Z,40.90
2022-08-07T05:09:00.213Z,40.88
2022-08-07T05:11:19.380Z,41.23
2022-08-07T05:14:55.524Z,40.84
2022-08-07T05:16:47.410Z,40.69
2022-08-07T05:19:32.703Z,40.71
2022-08-07T05:22:19.115Z,40.95
2022-08-07T05:25:00.392Z,40.46
2022-08-07T05:28:02.574Z,40.27
2022-08-07T05:30:30.345Z,40.51
2022-08-07T05:33:04.658Z,40.53
2022-08-07T05:35:42.041Z,40.69
2022-08-07T05:38:12.664Z,40.65
2022-08-07T05:41:01.558Z,40.55
2022-08-07T05:43:49.990Z,40.33
2022-08-07T05:46:29.832Z,39.93
2022-08-07T05:48:59.388Z,40.03
2022-08-07T05:51:33.332Z,40.17
2022-08-07T05:54:13.487Z,40.02
2022-08-07T05:56:56.631Z,39.79
2022-08-07T05:59:27.265Z,39.52
2022-08-07T06:02:01.995Z,39.42
2022-08-07T06:04:32.416Z,39.23
2022-08-07T06:07:03.803Z,39.17
2022-08-07T06:10:03.763Z,38.81
2022-08-07T06:12:27.973Z,38.97
2022-08-07T06:15:05.275Z,38.89
2022-08-07T06:17:37.545Z,38.69
2022-08-07T06:20:12.729Z,38.30
2022-08-07T06:23:02.066Z,38.27
2022-08-07T06:25:54.355Z,38.46
2022-08-07T06:28:27.766Z,38.13
2022-08-07T06:30:58.179Z,38.03
2022-08-07T06:33:29.693Z,38.01
2022-08-07T06:36:12.918Z,37.62
2022-08-07T06:38:59.290Z,37.63
2022-08-07T06:42:01.695Z,37.22
2022-08-07T06:45:04.674Z,37.39
2022-08-07T06:47:48.171Z,37.34
2022-08-07T06:50:20.417Z,37.18
2022-08-07T06:52:55.734Z,36.96
2022-08-07T06:55:47.539Z,37.11
2022-08-07T06:58:21.524Z,36.73
2022-08-07T07:01:00.979Z,37.25
2022-08-07T07:03:49.137Z,36.76
2022-08-07T07:06:24.029Z,36.98
2022-08-07T07:08:55.329Z,36.65
2022-08-07T07:12:08.835Z,36.46
2022-08-07T07:14:18.245Z,36.18
2022-08-07T07:16:53.607Z,36.62
2022-08-07T07:19:55.341Z,36.63
2022-08-07T07:22:36.236Z,36.21
2022-08-07T07:26:30.591Z,36.27
2022-08-07T07:28:02.604Z,36.69
2022-08-07T07:30:39.706Z,36.57
2022-08-07T07:33:11.805Z,36.38
2022-08-07T07:35:43.970Z,36.45
2022-08-07T07:38:31.308Z,36.59
2022-08-07T07:41:03.192Z,36.30
2022-08-07T07:43:47.892Z,36.32
2022-08-07T07:46:36.870Z,36.29
2022-08-07T07:50:33.398Z,36.58
2022-08-07T07:52:01.394Z,35.91
2022-08-07T07:54:31.892Z,36.01
2022-08-07T07:57:01.753Z,36.03
2022-08-07T07:59:52.813Z,35.97
2022-08-07T08:02:34.314Z,35.67
2022-08-07T08:05:05.405Z,34.50
2022-08-07T08:07:59.677Z,35.47
2022-08-07T08:10:35.487Z,35.76
2022-08-07T08:13:10.572Z,34.87
2022-08-07T08:15:58.357Z,34.45
2022-08-07T08:18:28.756Z,34.98
2022-08-07T08:21:00.736Z,33.59
2022-08-07T08:23:30.418Z,33.86
2022-08-07T08:26:06.914Z,33.91
2022-08-07T08:28:44.842Z,34.40
2022-08-07T08:31:58.428Z,34.15
2022-08-07T08:34:23.234Z,34.22
2022-08-07T08:36:58.348Z,34.38
2022-08-07T08:39:39.435Z,34.39
2022-08-07T08:42:20.621Z,33.92
2022-08-07T08:45:04.252Z,34.31
2022-08-07T08:47:47.351Z,34.00
2022-08-07T08:50:35.040Z,34.70
2022-08-07T08:53:19.564Z,34.52
2022-08-07T08:55:55.211Z,33.99
2022-08-07T08:58:35.559Z,34.35
2022-08-07T09:01:14.817Z,34.13
2022-08-07T09:03:56.743Z,34.25
2022-08-07T09:06:37.683Z,34.25
2022-08-07T09:09:23.637Z,34.23
2022-08-07T09:12:30.573Z,34.13
2022-08-07T09:16:21.524Z,34.05
2022-08-07T09:18:15.715Z,33.72
2022-08-07T09:21:00.352Z,33.21
2022-08-07T09:24:32.114Z,33.56
2022-08-07T09:26:33.685Z,33.59
2022-08-07T09:30:06.063Z,33.77
2022-08-07T09:32:17.212Z,33.71
2022-08-07T09:34:55.136Z,33.58
2022-08-07T09:37:48.082Z,33.52
2022-08-07T09:40:28.821Z,33.88
2022-08-07T09:43:11.586Z,33.62
2022-08-07T09:47:25.852Z,33.52
2022-08-07T09:50:00.490Z,33.52
2022-08-07T09:52:16.701Z,33.85
2022-08-07T09:55:02.055Z,34.84
2022-08-07T09:58:07.653Z,34.20
2022-08-07T10:00:50.971Z,33.83
2022-08-07T10:04:05.050Z,34.28
2022-08-07T10:06:56.839Z,33.53
2022-08-07T10:10:12.113Z,33.44
2022-08-07T10:13:29.724Z,32.48
2022-08-07T10:16:22.106Z,33.63
2022-08-07T10:19:22.336Z,32.80
2022-08-07T10:22:15.600Z,32.45
2022-08-07T10:25:04.889Z,32.34
2022-08-07T10:27:51.322Z,32.70
2022-08-07T10:30:26.384Z,32.86
2022-08-07T10:33:23.596Z,32.99
2022-08-07T10:36:29.917Z,32.39
2022-08-07T10:39:04.499Z,32.75
2022-08-07T10:41:46.268Z,32.96
2022-08-07T10:44:28.852Z,32.80
2022-08-07T10:47:18.959Z,32.74
2022-08-07T10:50:03.651Z,32.88
2022-08-07T10:52:37.517Z,32.92
2022-08-07T10:55:27.099Z,32.93
2022-08-07T10:58:17.977Z,32.43
2022-08-07T11:01:17.773Z,32.57
2022-08-07T11:04:11.178Z,32.50
2022-08-07T11:07:01.343Z,32.21
2022-08-07T11:10:08.532Z,32.45
2022-08-07T11:12:32.064Z,32.24
2022-08-07T11:15:04.271Z,32.50
2022-08-07T11:17:49.548Z,32.43
2022-08-07T11:20:22.402Z,32.26
2022-08-07T11:23:01.456Z,32.01
2022-08-07T11:25:36.181Z,32.02
2022-08-07T11:28:16.610Z,32.33
2022-08-07T11:30:53.451Z,32.30
2022-08-07T11:33:59.770Z,32.52
2022-08-07T11:36:43.833Z,32.79
2022-08-07T11:39:24.105Z,31.66
2022-08-07T11:42:01.813Z,32.52
2022-08-07T11:44:52.065Z,32.76
2022-08-07T11:47:38.999Z,31.62
2022-08-07T11:50:44.710Z,32.03
2022-08-07T11:53:37.178Z,32.96
2022-08-07T11:56:26.366Z,32.69
2022-08-07T12:00:07.996Z,32.26
2022-08-07T12:02:03.231Z,32.61
2022-08-07T12:04:52.531Z,32.57
2022-08-07T12:07:27.260Z,32.07
2022-08-07T12:10:05.610Z,32.19
2022-08-07T12:12:39.845Z,32.39
2022-08-07T12:15:35.432Z,32.15
2022-08-07T12:18:12.958Z,31.76
2022-08-07T12:20:49.111Z,31.65
2022-08-07T12:24:07.168Z,32.44
2022-08-07T12:26:46.191Z,32.29
2022-08-07T12:29:20.436Z,31.76
2022-08-07T12:32:14.440Z,31.16
2022-08-07T12:34:49.518Z,31.67
2022-08-07T12:37:28.589Z,31.80
2022-08-07T12:40:43.997Z,31.97
2022-08-07T12:43:10.255Z,32.13
2022-08-07T12:45:45.745Z,32.16
2022-08-07T12:48:41.580Z,32.08
2022-08-07T12:51:21.202Z,32.30
2022-08-07T12:54:02.940Z,32.10
2022-08-07T12:56:55.108Z,32.59
2022-08-07T12:59:33.184Z,31.77
2022-08-07T13:02:40.970Z,31.94
2022-08-07T13:06:02.521Z,32.64
2022-08-07T13:08:29.488Z,32.21
2022-08-07T13:11:08.720Z,32.80
2022-08-07T13:13:50.215Z,32.50
2022-08-07T13:16:27.135Z,33.07
2022-08-07T13:19:11.521Z,32.89
2022-08-07T13:22:01.977Z,32.73
2022-08-07T13:24:43.975Z,32.81
2022-08-07T13:27:33.532Z,32.62
2022-08-07T13:30:18.886Z,32.99
2022-08-07T13:33:16.487Z,33.15
2022-08-07T13:36:05.384Z,32.93
2022-08-07T13:38:42.225Z,33.13
2022-08-07T13:41:21.385Z,32.79
2022-08-07T13:43:55.913Z,33.45
2022-08-07T13:46:33.773Z,33.64
2022-08-07T13:49:19.763Z,33.84
2022-08-07T13:52:04.434Z,33.79
2022-08-07T13:54:35.158Z,33.62
2022-08-07T13:57:04.450Z,34.09
2022-08-07T13:59:36.811Z,33.80
2022-08-07T14:02:12.820Z,33.57
2022-08-07T14:04:50.241Z,33.74
2022-08-07T14:07:24.649Z,33.77
2022-08-07T14:10:01.422Z,33.86
2022-08-07T14:12:54.958Z,33.72
2022-08-07T14:15:35.075Z,33.71
2022-08-07T14:18:15.605Z,34.93
2022-08-07T14:21:07.977Z,34.26
2022-08-07T14:24:00.109Z,34.14
2022-08-07T14:26:32.170Z,33.62
2022-08-07T14:29:10.413Z,33.79
2022-08-07T14:31:56.315Z,34.19
2022-08-07T14:34:30.905Z,34.29
2022-08-07T14:37:02.961Z,34.02
2022-08-07T14:40:17.391Z,34.08
2022-08-07T14:42:26.012Z,33.61
2022-08-07T14:44:59.727Z,33.60
2022-08-07T14:47:33.847Z,33.85
2022-08-07T14:50:06.790Z,34.07
2022-08-07T14:52:39.637Z,34.32
2022-08-07T14:55:10.252Z,33.79
2022-08-07T14:57:54.735Z,33.97
2022-08-07T15:00:31.049Z,33.88
2022-08-07T15:02:59.555Z,34.57
2022-08-07T15:05:30.333Z,34.44
2022-08-07T15:08:03.920Z,34.31
2022-08-07T15:10:32.434Z,34.19
2022-08-07T15:13:11.479Z,34.57
2022-08-07T15:15:41.007Z,34.97
2022-08-07T15:21:08.214Z,34.49
2022-08-07T15:25:02.434Z,34.69
2022-08-07T15:26:36.665Z,34.70
2022-08-07T15:32:02.718Z,34.64
2022-08-07T15:34:36.701Z,34.78
2022-08-07T15:37:07.789Z,35.23
2022-08-07T15:39:56.640Z,34.68
2022-08-07T15:42:56.004Z,35.02
2022-08-07T15:48:26.661Z,35.09
2022-08-07T15:53:56.716Z,35.81
2022-08-07T15:56:33.378Z,35.55
2022-08-07T15:59:04.614Z,35.77
2022-08-07T16:01:35.551Z,35.87
2022-08-07T16:04:14.921Z,35.58
2022-08-07T16:06:49.611Z,35.69
2022-08-07T16:09:23.579Z,35.44
2022-08-07T16:12:28.610Z,35.69
2022-08-07T16:15:57.523Z,35.46
2022-08-07T16:18:49.314Z,35.84
2022-08-07T16:22:01.168Z,35.86
2022-08-07T16:24:03.412Z,36.28
2022-08-07T16:26:59.599Z,35.55
2022-08-07T16:30:11.263Z,36.20
2022-08-07T16:34:02.436Z,36.19
2022-08-07T16:36:19.738Z,35.85
2022-08-07T16:39:03.689Z,36.05
2022-08-07T16:42:00.353Z,35.97
2022-08-07T16:45:14.242Z,35.90
2022-08-07T16:47:56.642Z,35.89
2022-08-07T16:51:20.348Z,36.20
2022-08-07T16:54:08.742Z,36.12
2022-08-07T16:57:01.049Z,36.46
2022-08-07T16:59:46.810Z,36.00
2022-08-07T17:02:51.073Z,36.52
2022-08-07T17:06:19.636Z,36.21
2022-08-07T17:09:04.359Z,36.15
2022-08-07T17:12:04.815Z,36.05
2022-08-07T17:14:37.863Z,36.01
2022-08-07T17:17:14.345Z,36.44
2022-08-07T17:20:02.680Z,36.24
2022-08-07T17:22:38.099Z,36.27
2022-08-07T17:25:16.406Z,36.61
2022-08-07T17:27:59.476Z,36.82
2022-08-07T17:30:35.561Z,36.90
2022-08-07T17:34:09.022Z,36.51
2022-08-07T17:36:13.661Z,36.74
2022-08-07T17:38:54.680Z,36.60
2022-08-07T17:42:04.479Z,36.76
2022-08-07T17:44:41.503Z,37.26
2022-08-07T17:47:17.421Z,37.05
2022-08-07T17:50:19.125Z,37.42
2022-08-07T17:52:59.635Z,37.56
2022-08-07T17:55:54.834Z,37.54
2022-08-07T17:58:31.048Z,37.29
2022-08-07T18:01:02.913Z,37.63
2022-08-07T18:04:07.756Z,36.88
2022-08-07T18:06:43.180Z,37.32
2022-08-07T18:09:18.943Z,37.49
2022-08-07T18:12:28.010Z,37.52
2022-08-07T18:15:08.468Z,37.41
2022-08-07T18:18:47.600Z,37.54
2022-08-07T18:21:08.440Z,37.75
2022-08-07T18:23:50.600Z,37.97
2022-08-07T18:26:24.935Z,37.38
2022-08-07T18:30:04.604Z,37.53
2022-08-07T18:32:12.955Z,37.66
2022-08-07T18:35:05.263Z,37.73
2022-08-07T18:38:55.689Z,37.81
2022-08-07T18:41:07.895Z,37.93
2022-08-07T18:43:49.124Z,37.74
2022-08-07T18:46:27.835Z,37.86
2022-08-07T18:50:29.927Z,37.99
2022-08-07T18:52:38.729Z,38.02
2022-08-07T18:55:41.154Z,37.98
2022-08-07T18:58:13.023Z,38.27
2022-08-07T19:00:55.025Z,38.15
2022-08-07T19:03:38.960Z,38.25
2022-08-07T19:06:16.157Z,38.09
2022-08-07T19:08:50.308Z,37.86
2022-08-07T19:11:36.339Z,38.15
2022-08-07T19:14:17.361Z,38.12
2022-08-07T19:17:05.738Z,38.29
2022-08-07T19:19:50.444Z,38.23
2022-08-07T19:22:31.292Z,38.15
2022-08-07T19:25:05.745Z,38.35
2022-08-07T19:28:29.951Z,38.44
2022-08-07T19:31:05.748Z,38.23
2022-08-07T19:33:33.571Z,38.28
2022-08-07T19:36:04.577Z,38.58
2022-08-07T19:38:35.367Z,38.72
2022-08-07T19:41:39.195Z,38.57
2022-08-07T19:44:21.176Z,39.79
2022-08-07T19:46:55.254Z,39.05
2022-08-07T19:49:57.233Z,38.60
2022-08-07T19:52:18.216Z,38.39
2022-08-07T19:54:56.583Z,38.23
2022-08-07T19:58:01.029Z,38.39
2022-08-07T20:00:28.201Z,38.96
2022-08-07T20:03:01.772Z,38.29
2022-08-07T20:05:59.657Z,37.99
2022-08-07T20:08:23.684Z,37.70
2022-08-07T20:10:56.294Z,37.51
2022-08-07T20:13:35.066Z,37.68
2022-08-07T20:16:06.090Z,37.34
2022-08-07T20:18:35.044Z,37.65
2022-08-07T20:21:20.980Z,37.29
2022-08-07T20:23:54.903Z,37.15
2022-08-07T20:26:29.874Z,37.72
2022-08-07T20:29:10.171Z,37.60
2022-08-07T20:31:47.906Z,37.47
2022-08-07T20:34:40.021Z,37.64
2022-08-07T20:37:10.744Z,37.50
2022-08-07T20:40:04.021Z,37.28
2022-08-07T20:42:33.613Z,37.59
2022-08-07T20:45:02.321Z,37.38
2022-08-07T20:47:56.082Z,37.58
2022-08-07T20:50:24.335Z,37.80
2022-08-07T20:52:52.817Z,37.48
2022-08-07T20:55:23.648Z,37.59
2022-08-07T20:58:02.913Z,37.47
2022-08-07T21:00:39.216Z,37.62
2022-08-07T21:03:14.224Z,37.63
2022-08-07T21:05:54.931Z,37.75
2022-08-07T21:08:38.056Z,37.71
2022-08-07T21:11:12.418Z,38.07
2022-08-07T21:14:29.357Z,37.99
2022-08-07T21:16:46.752Z,38.35
2022-08-07T21:19:32.258Z,37.93
2022-08-07T21:22:19.051Z,38.50
2022-08-07T21:25:04.575Z,38.37
2022-08-07T21:27:53.820Z,38.44
2022-08-07T21:30:29.983Z,38.62
2022-08-07T21:33:09.187Z,38.40
2022-08-07T21:36:04.978Z,38.54
2022-08-07T21:38:44.158Z,38.36
2022-08-07T21:41:19.853Z,38.33
2022-08-07T21:43:56.915Z,38.22
2022-08-07T21:46:31.837Z,38.40
2022-08-07T21:49:15.080Z,38.41
2022-08-07T21:51:57.796Z,38.66
2022-08-07T21:54:38.395Z,38.78
2022-08-07T21:57:44.439Z,39.12
2022-08-07T22:00:22.066Z,38.88
2022-08-07T22:02:59.252Z,39.08
2022-08-07T22:05:45.984Z,39.04
2022-08-07T22:08:20.148Z,39.07
2022-08-07T22:10:51.009Z,39.08
2022-08-07T22:13:24.000Z,39.27
2022-08-07T22:16:38.583Z,39.33
2022-08-07T22:18:58.283Z,39.14
2022-08-07T22:22:05.198Z,39.18
2022-08-07T22:24:33.729Z,39.38
2022-08-07T22:27:06.577Z,39.53
2022-08-07T22:29:48.230Z,39.48
2022-08-07T22:32:24.579Z,39.42
2022-08-07T22:34:55.335Z,39.63
2022-08-07T22:38:02.713Z,39.95
2022-08-07T22:40:28.806Z,39.84
2022-08-07T22:43:03.168Z,39.85
2022-08-07T22:46:40.725Z,39.96
2022-08-07T22:48:55.372Z,39.71
2022-08-07T22:51:51.876Z,39.82
2022-08-07T22:54:47.959Z,39.49
2022-08-07T22:57:44.799Z,39.57
2022-08-07T23:00:18.012Z,39.57
2022-08-07T23:03:09.077Z,39.64
2022-08-07T23:06:06.760Z,40.13
2022-08-07T23:08:58.493Z,39.98
2022-08-07T23:11:59.452Z,39.90
2022-08-07T23:14:40.554Z,40.08
2022-08-07T23:17:35.249Z,39.89
2022-08-07T23:20:40.461Z,39.92
2022-08-07T23:24:05.533Z,40.11
2022-08-07T23:26:25.287Z,40.01
2022-08-07T23:30:35.597Z,40.26
2022-08-07T23:34:24.041Z,39.87
2022-08-07T23:35:22.750Z,40.38
2022-08-07T23:38:42.374Z,40.31
2022-08-07T23:41:33.523Z,39.99
2022-08-07T23:44:16.907Z,40.21
2022-08-07T23:47:07.354Z,40.19
2022-08-07T23:50:07.493Z,39.98
2022-08-07T23:52:58.764Z,40.29
2022-08-07T23:55:53.388Z,40.10
2022-08-07T23:58:37.304Z,40.39
